Latest Weather Forecast - Sunday 9th September 2018 (6am)

Date: Sunday, 9th September 2018
Valid from: 6:00 am to 12:00 pm
Synopsis: A weak surface to low level trough will be affecting the island....
Forecast: :   Fair to partly cloudy with a few scattered showers at first. Some localized showers and isolated thunderstorms will develope over some sections of the island mainly during the afternoon
Weather Advisory/
Warning:
None
Winds: Generally from the E at 15 to 20 km/h.
Sea Conditions: Moderate in open water; swells 1.0 m to 1.5m
Marine
Advisory/
Warning:
None
Tides:09.09.2018

High: 5:14 am  5:06 pm  
Low:  11:03 am ****

Aviation WX

[Source: ADDS]
METAR
TVSA 261000Z 06014KT 5000 HZ SCT016 28/25 Q1010 TEMPO SHRA =
TVSA 260500Z 2606/2706 06013KT 9999 SCT020 PROB40 TEMPO 2618/2706 04016G28KT 4000 TSRA RA BKN014 SCT015CB
TAF
TVSA 260500Z 2606/2706 06013KT 9999 SCT020 PROB40 TEMPO 2618/2706 04016G28KT 4000 TSRA RA BKN014 SCT015CB =
SR / SS: 09:53 / 21:57 UTC (Sunrise Sunset 2018-09-26)